Time;durP1;ratioP1;P1;durP2;ratioP2;P2;SDS_P1;SDS_P2;PMS_P1;PMS_P2;Temp;Humidity;BMP_temperature;BMP_pressure;BME280_temperature;BME280_humidity;BME280_pressure;Samples;Min_cycle;Max_cycle;Signal;HPM_P1;HPM_P2
2023/08/26 00:00:37;;;;;;;0.40;0.40;;;15.20;99.90;;;;;;5063062;28;20048;-72
2023/08/26 00:03:04;;;;;;;0.20;0.20;;;15.20;99.90;;;;;;5060353;28;20631;-72
2023/08/26 00:05:32;;;;;;;0.50;0.20;;;15.20;99.90;;;;;;5043976;28;20066;-72
2023/08/26 00:07:58;;;;;;;0.30;0.30;;;15.10;1.00;;;;;;5041925;28;20044;-72
2023/08/26 00:10:25;;;;;;;0.30;0.30;;;15.10;1.00;;;;;;5061906;28;20068;-73
2023/08/26 00:12:52;;;;;;;0.43;0.40;;;15.00;1.00;;;;;;5061285;28;20117;-72
2023/08/26 00:15:19;;;;;;;0.50;0.50;;;15.00;1.00;;;;;;5044088;28;20455;-72
2023/08/26 00:17:46;;;;;;;0.30;0.30;;;15.00;1.00;;;;;;5060560;28;20036;-72
2023/08/26 00:20:13;;;;;;;0.30;0.30;;;14.90;1.00;;;;;;5059083;28;20558;-72
2023/08/26 00:22:39;;;;;;;0.30;0.30;;;14.90;23.70;;;;;;5060020;28;20972;-72
2023/08/26 00:25:07;;;;;;;0.40;0.40;;;14.90;83.90;;;;;;5072038;28;20411;-72
2023/08/26 00:27:34;;;;;;;0.43;0.40;;;14.80;99.90;;;;;;5090156;28;20270;-72
2023/08/26 00:30:00;;;;;;;0.40;0.40;;;14.80;99.90;;;;;;5076972;28;20059;-72
2023/08/26 00:32:29;;;;;;;0.90;0.40;;;14.80;99.90;;;;;;5066073;28;20044;-72
2023/08/26 00:34:56;;;;;;;0.50;0.30;;;14.80;99.90;;;;;;5062466;28;20097;-72
2023/08/26 00:37:23;;;;;;;0.38;0.38;;;14.70;99.90;;;;;;5057504;28;20052;-72
2023/08/26 00:39:49;;;;;;;0.30;0.30;;;14.70;99.90;;;;;;5061772;28;20639;-72
2023/08/26 00:42:16;;;;;;;0.30;0.30;;;14.70;99.90;;;;;;5059489;28;20605;-72
2023/08/26 00:44:43;;;;;;;0.52;0.38;;;14.70;99.90;;;;;;5062706;28;20499;-72
2023/08/26 00:47:10;;;;;;;0.22;0.22;;;14.60;99.90;;;;;;5066330;28;20048;-72
2023/08/26 00:49:37;;;;;;;0.50;0.50;;;14.60;99.90;;;;;;5042536;28;20040;-72
2023/08/26 00:52:04;;;;;;;0.20;0.20;;;14.60;99.90;;;;;;5059592;28;20052;-72
2023/08/26 00:54:35;;;;;;;0.43;0.32;;;14.50;99.90;;;;;;5061503;28;20219;-72
2023/08/26 00:57:04;;;;;;;0.30;0.20;;;14.50;99.90;;;;;;5059595;28;20169;-71
2023/08/26 00:59:31;;;;;;;0.40;0.40;;;14.40;1.00;;;;;;5061001;28;20047;-71
2023/08/26 01:01:58;;;;;;;0.35;0.30;;;14.50;1.00;;;;;;5060922;28;20545;-72
2023/08/26 01:04:25;;;;;;;0.30;0.30;;;14.40;1.00;;;;;;5069423;28;20492;-72
2023/08/26 01:06:52;;;;;;;0.90;0.43;;;14.40;1.00;;;;;;5064976;28;20059;-72
2023/08/26 01:09:19;;;;;;;0.60;0.35;;;14.40;1.00;;;;;;5048265;28;20147;-71
2023/08/26 01:12:27;;;;;;;0.30;0.30;;;14.40;1.00;;;;;;5069937;28;20048;-72
2023/08/26 01:14:58;;;;;;;0.50;0.30;;;14.30;1.00;;;;;;5054634;28;20053;-71
2023/08/26 01:17:25;;;;;;;0.30;0.30;;;14.30;1.00;;;;;;5059537;28;20087;-71
2023/08/26 01:19:53;;;;;;;0.43;0.43;;;14.30;4.70;;;;;;5061297;28;20384;-71
2023/08/26 01:22:20;;;;;;;0.60;0.38;;;14.30;1.00;;;;;;5063538;28;20049;-71
2023/08/26 01:24:46;;;;;;;0.32;0.32;;;14.30;18.50;;;;;;5063339;28;20056;-71
2023/08/26 01:27:13;;;;;;;0.30;0.30;;;14.30;71.10;;;;;;5053068;28;20538;-72
2023/08/26 01:29:40;;;;;;;0.40;0.30;;;14.20;96.50;;;;;;5053406;28;20049;-73
2023/08/26 01:32:17;;;;;;;0.43;0.20;;;14.20;99.90;;;;;;5054518;28;20216;-71
2023/08/26 01:34:47;;;;;;;0.45;0.45;;;14.20;99.90;;;;;;5062546;28;20060;-71
2023/08/26 01:37:14;;;;;;;0.35;0.30;;;14.20;99.90;;;;;;5078266;28;20056;-71
2023/08/26 01:39:41;;;;;;;0.55;0.40;;;14.20;99.90;;;;;;5064558;28;20553;-71
2023/08/26 01:42:08;;;;;;;0.40;0.40;;;14.20;99.90;;;;;;5061964;28;20507;-71
2023/08/26 01:44:34;;;;;;;0.30;0.30;;;14.20;99.90;;;;;;5057389;28;20109;-71
2023/08/26 01:47:01;;;;;;;0.35;0.30;;;14.10;99.90;;;;;;5071301;28;20479;-71
2023/08/26 01:49:28;;;;;;;0.40;0.40;;;14.10;99.90;;;;;;5064069;28;20048;-71
2023/08/26 01:51:55;;;;;;;0.50;0.40;;;14.10;99.90;;;;;;5061728;28;20114;-72
2023/08/26 01:54:21;;;;;;;0.45;0.45;;;14.10;99.90;;;;;;5062421;28;20083;-71
2023/08/26 01:56:48;;;;;;;0.50;0.50;;;14.10;99.90;;;;;;5055393;28;20117;-71
2023/08/26 01:59:15;;;;;;;0.43;0.43;;;14.10;99.90;;;;;;5059556;28;20113;-71
2023/08/26 02:01:41;;;;;;;0.50;0.40;;;14.10;99.90;;;;;;5058705;28;20094;-71
2023/08/26 02:04:08;;;;;;;0.35;0.30;;;14.00;99.90;;;;;;5041726;28;20048;-71
2023/08/26 02:06:37;;;;;;;0.38;0.38;;;14.00;99.90;;;;;;5057359;28;20091;-71
2023/08/26 02:09:04;;;;;;;0.28;0.28;;;14.00;99.90;;;;;;5043518;28;20056;-74
2023/08/26 02:11:31;;;;;;;0.43;0.40;;;14.00;99.90;;;;;;5040731;28;20052;-72
2023/08/26 02:13:57;;;;;;;0.45;0.45;;;14.00;99.90;;;;;;5049683;28;20445;-71
2023/08/26 02:16:24;;;;;;;1.13;0.47;;;14.00;99.90;;;;;;5062379;28;20044;-72
2023/08/26 02:18:52;;;;;;;0.65;0.45;;;13.90;99.90;;;;;;5045426;28;20047;-72
2023/08/26 02:21:19;;;;;;;0.35;0.30;;;13.90;99.90;;;;;;5061452;28;20052;-71
2023/08/26 02:23:45;;;;;;;0.90;0.60;;;13.90;99.90;;;;;;5065056;28;20167;-72
2023/08/26 02:26:12;;;;;;;0.47;0.43;;;13.80;99.90;;;;;;5062466;28;20053;-71
2023/08/26 02:28:39;;;;;;;0.30;0.30;;;13.80;99.90;;;;;;5061800;28;20435;-71
2023/08/26 02:31:06;;;;;;;0.50;0.30;;;13.80;99.90;;;;;;5045279;28;20083;-71
2023/08/26 02:33:33;;;;;;;0.40;0.40;;;13.70;99.90;;;;;;5062422;28;20080;-71
2023/08/26 02:36:00;;;;;;;0.30;0.30;;;13.70;99.90;;;;;;5063137;28;20052;-72
2023/08/26 02:38:27;;;;;;;0.75;0.50;;;13.70;99.90;;;;;;5062801;28;20052;-73
2023/08/26 02:40:56;;;;;;;0.52;0.52;;;13.60;99.90;;;;;;5061213;28;20052;-73
2023/08/26 02:43:23;;;;;;;0.80;0.50;;;13.60;99.90;;;;;;5062981;28;20582;-71
2023/08/26 02:45:54;;;;;;;0.63;0.40;;;13.60;99.90;;;;;;5062361;28;20533;-73
2023/08/26 02:48:21;;;;;;;0.73;0.47;;;13.60;1.00;;;;;;5061051;28;20163;-74
2023/08/26 02:50:58;;;;;;;0.50;0.50;;;13.60;1.00;;;;;;5064263;28;20041;-73
2023/08/26 02:53:25;;;;;;;0.40;0.40;;;13.50;1.00;;;;;;5063529;28;20058;-73
2023/08/26 02:55:52;;;;;;;0.43;0.40;;;13.50;1.00;;;;;;5044989;28;20045;-74
2023/08/26 02:58:19;;;;;;;0.63;0.47;;;13.40;1.00;;;;;;5060525;28;20125;-71
2023/08/26 03:00:46;;;;;;;0.70;0.52;;;13.40;1.00;;;;;;5060880;28;20488;-73
2023/08/26 03:03:14;;;;;;;0.77;0.60;;;13.30;1.00;;;;;;5045049;28;20412;-73
2023/08/26 03:05:41;;;;;;;0.88;0.45;;;13.30;1.00;;;;;;5062551;28;20056;-74
2023/08/26 03:08:08;;;;;;;0.45;0.40;;;13.30;1.00;;;;;;5060013;28;20072;-73
2023/08/26 03:10:35;;;;;;;0.45;0.40;;;13.30;1.00;;;;;;5061638;28;20135;-74
2023/08/26 03:13:01;;;;;;;0.93;0.55;;;13.30;1.00;;;;;;5058437;28;20095;-73
2023/08/26 03:15:29;;;;;;;0.13;0.10;;;13.20;1.00;;;;;;5075783;28;20048;-74
2023/08/26 03:17:56;;;;;;;0.50;0.40;;;13.30;1.00;;;;;;5062421;28;20075;-73
2023/08/26 03:20:23;;;;;;;0.40;0.40;;;13.30;15.60;;;;;;5061942;28;20090;-73
2023/08/26 03:22:50;;;;;;;0.50;0.40;;;13.30;11.20;;;;;;5062801;28;20102;-73
2023/08/26 03:25:17;;;;;;;0.50;0.50;;;13.40;22.80;;;;;;5061403;28;20048;-73
2023/08/26 03:27:44;;;;;;;0.60;0.50;;;13.40;26.50;;;;;;5058757;28;20125;-74
2023/08/26 03:30:11;;;;;;;0.80;0.60;;;13.40;36.40;;;;;;5064835;28;20561;-74
2023/08/26 03:32:37;;;;;;;0.50;0.50;;;13.40;36.00;;;;;;5078009;28;20052;-74
2023/08/26 03:35:05;;;;;;;0.43;0.43;;;13.40;40.40;;;;;;5061004;28;20652;-71
2023/08/26 03:37:32;;;;;;;0.43;0.43;;;13.40;34.90;;;;;;5061665;28;20082;-73
2023/08/26 03:39:59;;;;;;;0.63;0.50;;;13.30;22.70;;;;;;5058496;28;20102;-74
2023/08/26 03:42:27;;;;;;;0.30;0.30;;;13.30;28.30;;;;;;5059906;28;20530;-72
2023/08/26 03:44:53;;;;;;;0.68;0.60;;;13.30;24.60;;;;;;5061873;28;20064;-71
2023/08/26 03:47:21;;;;;;;0.50;0.40;;;13.30;22.50;;;;;;5069202;28;20346;-71
2023/08/26 03:49:48;;;;;;;0.63;0.50;;;13.20;11.70;;;;;;5042939;28;20060;-71
2023/08/26 03:52:14;;;;;;;0.50;0.50;;;13.20;6.90;;;;;;5053887;28;20516;-71
2023/08/26 03:54:41;;;;;;;0.65;0.50;;;13.10;3.20;;;;;;5059773;28;20109;-71
2023/08/26 03:57:08;;;;;;;0.35;0.25;;;13.10;1.00;;;;;;5059968;28;20447;-71
2023/08/26 03:59:35;;;;;;;0.38;0.38;;;13.00;8.30;;;;;;5059312;28;20052;-71
2023/08/26 04:02:02;;;;;;;0.47;0.47;;;13.00;7.20;;;;;;5060153;28;20117;-71
2023/08/26 04:04:30;;;;;;;0.25;0.25;;;13.00;2.80;;;;;;5062293;28;20145;-71
2023/08/26 04:06:57;;;;;;;0.55;0.55;;;13.00;21.90;;;;;;5062582;28;20049;-71
2023/08/26 04:09:24;;;;;;;0.63;0.40;;;13.00;27.00;;;;;;5028278;28;20065;-71
2023/08/26 04:11:51;;;;;;;0.50;0.40;;;12.90;4.10;;;;;;5058548;28;20059;-71
2023/08/26 04:14:17;;;;;;;0.63;0.43;;;12.90;15.30;;;;;;5060004;28;20519;-71
2023/08/26 04:16:44;;;;;;;0.45;0.43;;;12.80;6.10;;;;;;5060281;28;20102;-71
2023/08/26 04:19:11;;;;;;;0.50;0.50;;;12.80;1.00;;;;;;5062159;28;20049;-71
2023/08/26 04:21:38;;;;;;;0.40;0.38;;;12.80;1.00;;;;;;5060754;28;20056;-72
2023/08/26 04:24:05;;;;;;;0.57;0.50;;;12.70;7.60;;;;;;5044804;28;20480;-72
2023/08/26 04:26:32;;;;;;;0.35;0.35;;;12.80;2.30;;;;;;5060652;28;20133;-71
2023/08/26 04:28:58;;;;;;;0.40;0.40;;;12.70;24.00;;;;;;5061600;28;20055;-71
2023/08/26 04:31:25;;;;;;;0.80;0.40;;;12.70;22.90;;;;;;5061352;28;20052;-72
2023/08/26 04:33:52;;;;;;;0.50;0.47;;;12.70;4.90;;;;;;5044467;28;20133;-72
2023/08/26 04:36:19;;;;;;;0.38;0.38;;;12.60;11.10;;;;;;5061435;28;20516;-72
2023/08/26 04:38:46;;;;;;;0.30;0.30;;;12.60;16.70;;;;;;5059817;28;20123;-72
2023/08/26 04:41:13;;;;;;;0.40;0.40;;;12.50;13.20;;;;;;5058688;28;20072;-72
2023/08/26 04:43:40;;;;;;;0.50;0.43;;;12.50;36.10;;;;;;5063454;28;20113;-72
2023/08/26 04:46:07;;;;;;;0.73;0.47;;;12.50;47.30;;;;;;5048275;28;20072;-72
2023/08/26 04:48:34;;;;;;;0.50;0.40;;;12.50;42.70;;;;;;5065107;28;20192;-72
2023/08/26 04:51:02;;;;;;;0.60;0.43;;;12.50;81.10;;;;;;5064996;28;20514;-72
2023/08/26 04:53:30;;;;;;;0.57;0.32;;;12.60;99.90;;;;;;5062837;28;20049;-72
2023/08/26 04:55:56;;;;;;;0.52;0.40;;;12.60;99.90;;;;;;5064787;28;20096;-72
2023/08/26 04:58:23;;;;;;;0.40;0.40;;;12.50;82.60;;;;;;5065176;28;20444;-72
2023/08/26 05:00:50;;;;;;;0.22;0.22;;;12.50;52.90;;;;;;5063382;28;21914;-72
2023/08/26 05:03:17;;;;;;;0.28;0.25;;;12.50;60.30;;;;;;5059053;28;20044;-72
2023/08/26 05:05:44;;;;;;;0.25;0.20;;;12.50;73.20;;;;;;5068511;28;20061;-72
2023/08/26 05:08:11;;;;;;;0.40;0.30;;;12.50;44.50;;;;;;5059853;28;20169;-72
2023/08/26 05:10:38;;;;;;;0.57;0.40;;;12.40;44.00;;;;;;5060182;28;20049;-72
2023/08/26 05:13:05;;;;;;;0.40;0.40;;;12.40;45.90;;;;;;5057717;28;20044;-72
2023/08/26 05:15:32;;;;;;;0.20;0.20;;;12.40;46.90;;;;;;5062255;28;20060;-72
2023/08/26 05:17:59;;;;;;;0.30;0.30;;;12.40;43.70;;;;;;5061150;28;20052;-72
2023/08/26 05:20:27;;;;;;;0.40;0.40;;;12.30;33.10;;;;;;5061563;28;20120;-72
2023/08/26 05:22:55;;;;;;;0.63;0.40;;;12.30;41.90;;;;;;5060855;28;20140;-72
2023/08/26 05:25:22;;;;;;;0.20;0.20;;;12.30;96.50;;;;;;5058035;28;20258;-72
2023/08/26 05:27:48;;;;;;;0.52;0.40;;;12.40;90.10;;;;;;5062788;28;20052;-72
2023/08/26 05:30:15;;;;;;;0.38;0.38;;;12.30;48.20;;;;;;5061573;28;20407;-73
2023/08/26 05:32:42;;;;;;;0.47;0.40;;;12.30;69.70;;;;;;5063127;28;20045;-72
2023/08/26 05:35:09;;;;;;;0.20;0.20;;;12.30;69.60;;;;;;5061034;28;20651;-72
2023/08/26 05:37:35;;;;;;;0.40;0.40;;;12.40;62.20;;;;;;5061077;28;20121;-72
2023/08/26 05:40:03;;;;;;;0.40;0.40;;;12.40;70.00;;;;;;5061201;28;20172;-72
2023/08/26 05:42:29;;;;;;;0.30;0.30;;;12.40;65.10;;;;;;5039156;28;20113;-72
2023/08/26 05:44:56;;;;;;;0.63;0.30;;;12.40;59.70;;;;;;5058857;28;20059;-72
2023/08/26 05:47:23;;;;;;;0.60;0.40;;;12.50;60.80;;;;;;5055297;28;20047;-72
2023/08/26 05:49:50;;;;;;;0.20;0.20;;;12.50;62.40;;;;;;5065746;28;20127;-71
2023/08/26 05:52:16;;;;;;;0.40;0.40;;;12.50;75.40;;;;;;5037818;28;20137;-73
2023/08/26 05:54:43;;;;;;;0.40;0.40;;;12.60;81.20;;;;;;5057778;28;20181;-72
2023/08/26 05:57:11;;;;;;;0.50;0.35;;;12.60;92.50;;;;;;5053053;28;21061;-72
2023/08/26 05:59:38;;;;;;;0.20;0.20;;;12.60;99.90;;;;;;5052944;28;20072;-72
2023/08/26 06:02:05;;;;;;;0.40;0.30;;;12.70;99.90;;;;;;5057300;28;20136;-72
2023/08/26 06:04:32;;;;;;;0.52;0.30;;;12.80;99.90;;;;;;5054260;28;20257;-73
2023/08/26 06:07:03;;;;;;;0.28;0.28;;;12.80;99.90;;;;;;5056648;28;20417;-72
2023/08/26 06:09:30;;;;;;;0.50;0.40;;;12.90;99.90;;;;;;5056563;28;20049;-73
2023/08/26 06:11:56;;;;;;;0.38;0.38;;;13.00;99.90;;;;;;5057021;28;20060;-73
2023/08/26 06:14:23;;;;;;;0.40;0.40;;;13.00;99.90;;;;;;5056463;28;20513;-72
2023/08/26 06:16:50;;;;;;;0.30;0.30;;;13.10;99.90;;;;;;5036180;28;20053;-73
2023/08/26 06:19:17;;;;;;;0.40;0.30;;;13.10;99.90;;;;;;5053007;28;20832;-73
2023/08/26 06:21:44;;;;;;;0.32;0.30;;;13.20;99.90;;;;;;5056037;28;20648;-73
2023/08/26 06:24:11;;;;;;;1.38;0.40;;;13.20;99.90;;;;;;5056361;28;20157;-72
2023/08/26 06:26:37;;;;;;;0.30;0.30;;;13.20;99.90;;;;;;5054153;28;20049;-73
2023/08/26 06:29:04;;;;;;;0.35;0.35;;;13.30;99.90;;;;;;5033890;28;20053;-72
2023/08/26 06:31:31;;;;;;;0.30;0.30;;;13.30;99.90;;;;;;5048679;28;20040;-72
2023/08/26 06:33:58;;;;;;;0.30;0.25;;;13.40;99.90;;;;;;5051207;28;20144;-72
2023/08/26 06:36:25;;;;;;;0.32;0.32;;;13.50;99.90;;;;;;5052289;28;20114;-72
2023/08/26 06:38:52;;;;;;;0.32;0.30;;;13.50;99.90;;;;;;5046733;28;20060;-72
2023/08/26 06:41:18;;;;;;;0.40;0.40;;;13.60;99.90;;;;;;5049478;28;20052;-73
2023/08/26 06:43:45;;;;;;;0.43;0.40;;;13.60;99.90;;;;;;5051605;28;20129;-72
2023/08/26 06:46:13;;;;;;;0.30;0.30;;;13.70;99.90;;;;;;5054261;28;20110;-73
2023/08/26 06:48:40;;;;;;;0.38;0.38;;;13.70;99.90;;;;;;5050673;28;20296;-73
2023/08/26 06:51:07;;;;;;;0.73;0.52;;;13.80;99.90;;;;;;5034242;28;20052;-72
2023/08/26 06:53:33;;;;;;;0.40;0.40;;;13.90;99.90;;;;;;5082130;28;20048;-72
2023/08/26 06:56:00;;;;;;;0.35;0.35;;;14.00;99.90;;;;;;5047939;28;20048;-73
2023/08/26 06:58:27;;;;;;;0.40;0.40;;;14.00;99.90;;;;;;5050842;28;20087;-72
2023/08/26 07:00:54;;;;;;;0.45;0.45;;;14.10;99.90;;;;;;5048967;28;20102;-73
2023/08/26 07:03:22;;;;;;;0.30;0.30;;;14.20;99.90;;;;;;5046480;28;20117;-74
2023/08/26 07:05:49;;;;;;;0.32;0.30;;;14.30;99.90;;;;;;5041585;28;20135;-73
2023/08/26 07:08:16;;;;;;;0.38;0.38;;;14.50;97.40;;;;;;5047549;28;20056;-73
2023/08/26 07:10:44;;;;;;;0.50;0.40;;;14.60;39.00;;;;;;5048997;28;20044;-78
2023/08/26 07:13:12;;;;;;;0.50;0.50;;;14.70;1.00;;;;;;5049812;28;20051;-85
2023/08/26 07:15:39;;;;;;;0.40;0.40;;;14.80;1.00;;;;;;5065409;28;20467;-86
2023/08/26 07:18:06;;;;;;;0.40;0.40;;;14.90;1.00;;;;;;5039365;28;20299;-85
2023/08/26 07:20:33;;;;;;;0.40;0.40;;;15.10;1.00;;;;;;5072711;28;20060;-84
2023/08/26 07:23:00;;;;;;;0.65;0.65;;;15.20;1.00;;;;;;5019012;28;20068;-85
2023/08/26 07:25:27;;;;;;;0.90;0.40;;;15.30;1.00;;;;;;5048724;28;20056;-82
2023/08/26 07:27:54;;;;;;;0.57;0.50;;;15.30;1.00;;;;;;5029993;28;20110;-73
2023/08/26 07:30:22;;;;;;;0.60;0.50;;;15.40;1.00;;;;;;5049934;28;20060;-73
2023/08/26 07:32:49;;;;;;;0.47;0.47;;;15.50;1.00;;;;;;5049742;28;20396;-73
2023/08/26 07:35:16;;;;;;;0.45;0.40;;;15.50;1.00;;;;;;5046582;28;20052;-74
2023/08/26 07:37:43;;;;;;;0.52;0.40;;;15.60;99.90;;;;;;5033739;28;20044;-72
2023/08/26 07:40:14;;;;;;;0.63;0.57;;;15.70;99.90;;;;;;5041917;28;20438;-73
2023/08/26 07:42:42;;;;;;;0.57;0.57;;;15.80;99.90;;;;;;5042691;28;20137;-73
2023/08/26 07:45:09;;;;;;;0.50;0.50;;;15.80;99.90;;;;;;5047123;28;20127;-73
2023/08/26 07:47:36;;;;;;;0.60;0.60;;;15.90;99.90;;;;;;5029483;28;20141;-73
2023/08/26 07:50:06;;;;;;;0.50;0.50;;;15.90;99.90;;;;;;5050368;28;20059;-73
2023/08/26 07:52:33;;;;;;;1.00;0.90;;;16.00;99.90;;;;;;5030598;28;20056;-72
2023/08/26 07:55:00;;;;;;;0.70;0.70;;;16.10;99.90;;;;;;5049134;28;20431;-72
2023/08/26 07:57:27;;;;;;;0.52;0.52;;;16.10;99.90;;;;;;5045174;28;20060;-73
2023/08/26 07:59:53;;;;;;;0.65;0.60;;;16.20;99.90;;;;;;5053492;28;20131;-72
2023/08/26 08:02:20;;;;;;;1.02;0.65;;;16.20;99.90;;;;;;5046855;28;20099;-82
2023/08/26 08:04:47;;;;;;;0.50;0.45;;;16.20;99.90;;;;;;5030515;28;20068;-73
2023/08/26 08:07:14;;;;;;;0.57;0.57;;;16.20;99.90;;;;;;5032747;28;20349;-73
2023/08/26 08:09:41;;;;;;;0.50;0.50;;;16.20;99.90;;;;;;5053321;28;20492;-77
2023/08/26 08:12:09;;;;;;;0.95;0.90;;;16.20;99.90;;;;;;5065191;28;20453;-74
2023/08/26 08:14:36;;;;;;;0.50;0.50;;;16.30;99.90;;;;;;5052398;28;20614;-74
2023/08/26 08:17:03;;;;;;;0.52;0.52;;;16.40;99.90;;;;;;5053378;28;20051;-73
2023/08/26 08:19:30;;;;;;;0.40;0.40;;;16.40;1.00;;;;;;5053107;28;20048;-74
2023/08/26 08:21:57;;;;;;;0.60;0.60;;;16.50;1.00;;;;;;5047781;28;20048;-74
2023/08/26 08:24:24;;;;;;;0.60;0.60;;;16.50;1.00;;;;;;5054721;28;20044;-73
2023/08/26 08:26:50;;;;;;;0.35;0.35;;;16.60;1.00;;;;;;5049692;28;20059;-73
2023/08/26 08:29:18;;;;;;;0.73;0.70;;;16.80;99.90;;;;;;5087938;28;20116;-73
2023/08/26 08:31:44;;;;;;;0.60;0.60;;;17.00;99.90;;;;;;5049797;28;20124;-73
2023/08/26 08:34:14;;;;;;;0.63;0.50;;;17.10;1.00;;;;;;5045071;28;20048;-73
2023/08/26 08:36:40;;;;;;;0.50;0.47;;;17.20;1.00;;;;;;5034170;28;20044;-73
2023/08/26 08:39:07;;;;;;;0.40;0.40;;;17.40;1.00;;;;;;5048679;28;20524;-73
2023/08/26 08:41:37;;;;;;;0.40;0.40;;;17.50;99.90;;;;;;5049755;28;20045;-73
2023/08/26 08:44:10;;;;;;;0.57;0.57;;;17.70;5.00;;;;;;5034000;28;20044;-73
2023/08/26 08:46:37;;;;;;;0.63;0.63;;;17.90;1.00;;;;;;5039068;28;20048;-74
2023/08/26 08:49:04;;;;;;;0.70;0.63;;;18.20;80.00;;;;;;5052726;28;20756;-74
2023/08/26 08:51:31;;;;;;;0.40;0.40;;;18.30;99.90;;;;;;5054475;28;20052;-73
2023/08/26 08:53:58;;;;;;;0.50;0.40;;;18.40;99.90;;;;;;5051322;28;20609;-74
2023/08/26 08:56:24;;;;;;;0.50;0.50;;;18.50;99.90;;;;;;5038526;28;20052;-73
2023/08/26 08:58:51;;;;;;;0.50;0.50;;;18.60;99.90;;;;;;5054032;28;20048;-74
2023/08/26 09:01:19;;;;;;;0.68;0.63;;;18.70;99.90;;;;;;5053030;28;20130;-73
2023/08/26 09:03:46;;;;;;;0.75;0.70;;;18.70;18.70;;;;;;5053737;28;20475;-73
2023/08/26 09:06:13;;;;;;;0.40;0.40;;;18.80;99.90;;;;;;5038797;28;20056;-73
2023/08/26 09:08:42;;;;;;;0.38;0.38;;;18.90;99.90;;;;;;5054671;28;20048;-74
2023/08/26 09:11:09;;;;;;;0.47;0.47;;;19.00;99.90;;;;;;5047275;28;20135;-74
2023/08/26 09:13:35;;;;;;;0.40;0.40;;;19.20;99.90;;;;;;5047729;28;20049;-74
2023/08/26 09:16:02;;;;;;;0.38;0.30;;;19.30;74.20;;;;;;5055599;28;20049;-74
2023/08/26 09:18:29;;;;;;;0.40;0.40;;;19.30;52.30;;;;;;5031901;28;20047;-74
2023/08/26 09:20:56;;;;;;;1.17;0.82;;;19.30;36.70;;;;;;5054362;28;20064;-74
2023/08/26 09:23:23;;;;;;;0.55;0.40;;;19.40;41.10;;;;;;5037382;28;20044;-74
2023/08/26 09:25:52;;;;;;;0.43;0.38;;;19.50;26.90;;;;;;5088270;28;20054;-74
2023/08/26 09:28:20;;;;;;;0.60;0.50;;;19.60;28.30;;;;;;5053604;28;20052;-74
2023/08/26 09:31:06;;;;;;;0.55;0.43;;;19.70;15.50;;;;;;5036638;28;20052;-74
2023/08/26 09:33:34;;;;;;;0.50;0.50;;;19.90;12.40;;;;;;5035969;28;20267;-74
2023/08/26 09:36:00;;;;;;;0.57;0.50;;;20.00;7.70;;;;;;5034306;28;20806;-73
2023/08/26 09:38:41;;;;;;;0.40;0.40;;;20.10;4.20;;;;;;5049998;28;20045;-74
2023/08/26 09:41:07;;;;;;;0.30;0.30;;;20.10;3.70;;;;;;5049932;28;20045;-73
2023/08/26 09:43:35;;;;;;;0.43;0.38;;;19.80;1.70;;;;;;5043087;28;20052;-75
2023/08/26 09:46:03;;;;;;;0.40;0.40;;;19.70;1.00;;;;;;5034815;28;20041;-74
2023/08/26 09:48:30;;;;;;;0.75;0.40;;;19.30;1.00;;;;;;5053037;28;20173;-74
2023/08/26 09:50:57;;;;;;;0.70;0.55;;;19.00;1.00;;;;;;5052723;28;20130;-75
2023/08/26 09:53:33;;;;;;;0.30;0.30;;;18.80;67.40;;;;;;5066224;28;20163;-75
2023/08/26 09:56:00;;;;;;;0.52;0.50;;;18.50;99.90;;;;;;5043829;28;20094;-74
2023/08/26 09:58:27;;;;;;;0.30;0.30;;;17.90;99.90;;;;;;5064647;28;20795;-74
2023/08/26 10:00:55;;;;;;;0.20;0.20;;;17.30;1.00;;;;;;5047736;28;20060;-74
2023/08/26 10:03:23;;;;;;;0.60;0.40;;;17.00;99.90;;;;;;5076721;28;20049;-75
2023/08/26 10:05:52;;;;;;;0.30;0.30;;;17.00;99.90;;;;;;5028094;28;20072;-74
2023/08/26 10:08:20;;;;;;;0.47;0.40;;;16.90;1.00;;;;;;5050506;28;20084;-75
2023/08/26 10:10:52;;;;;;;0.30;0.30;;;17.00;99.90;;;;;;5035131;28;20071;-75
2023/08/26 10:13:21;;;;;;;0.30;0.30;;;17.00;99.90;;;;;;5057721;28;20053;-75
2023/08/26 10:15:50;;;;;;;0.30;0.30;;;16.90;99.90;;;;;;5055758;28;20151;-74
2023/08/26 10:18:48;;;;;;;0.40;0.40;;;16.90;99.90;;;;;;5065127;28;20058;-75
2023/08/26 10:21:15;;;;;;;0.45;0.45;;;17.00;99.90;;;;;;5051120;28;20105;-74
2023/08/26 10:23:42;;;;;;;0.20;0.20;;;17.00;90.30;;;;;;5052156;28;20375;-74
2023/08/26 10:26:09;;;;;;;0.40;0.40;;;17.10;99.90;;;;;;5031788;28;20573;-73
2023/08/26 10:28:36;;;;;;;0.40;0.40;;;17.20;99.90;;;;;;5053544;28;20040;-74
2023/08/26 10:31:06;;;;;;;0.50;0.40;;;17.20;93.90;;;;;;5051601;28;20647;-74
2023/08/26 10:34:12;;;;;;;0.40;0.40;;;17.30;99.90;;;;;;5052215;28;20048;-75
2023/08/26 10:36:39;;;;;;;0.35;0.30;;;17.50;1.00;;;;;;5051638;28;20499;-74
2023/08/26 10:39:18;;;;;;;0.30;0.30;;;17.60;99.90;;;;;;5052952;28;20120;-73
2023/08/26 10:42:12;;;;;;;0.70;0.57;;;17.60;99.90;;;;;;5046346;28;20407;-73
2023/08/26 10:44:41;;;;;;;0.63;0.50;;;17.70;99.90;;;;;;5052891;28;20118;-73
2023/08/26 10:47:08;;;;;;;0.65;0.52;;;17.80;1.00;;;;;;5014638;28;20273;-74
2023/08/26 10:49:36;;;;;;;0.47;0.45;;;17.90;99.90;;;;;;5080259;28;20538;-79
2023/08/26 10:52:16;;;;;;;0.82;0.50;;;18.10;99.90;;;;;;5054313;28;20079;-88
2023/08/26 10:54:44;;;;;;;0.77;0.45;;;18.40;99.90;;;;;;5074897;28;20128;-92
2023/08/26 10:57:11;;;;;;;0.40;0.40;;;18.80;99.90;;;;;;5072250;28;20041;-90
2023/08/26 10:59:41;;;;;;;0.52;0.40;;;19.30;99.90;;;;;;5046506;28;20539;-74
2023/08/26 11:02:09;;;;;;;0.40;0.38;;;19.50;99.90;;;;;;5062936;28;20448;-74
2023/08/26 11:04:41;;;;;;;0.57;0.50;;;19.40;1.00;;;;;;5061189;28;20070;-73
2023/08/26 11:07:15;;;;;;;0.57;0.40;;;19.20;99.90;;;;;;5043359;28;20131;-73
2023/08/26 11:09:42;;;;;;;0.40;0.40;;;19.00;42.80;;;;;;5029167;28;20124;-74
2023/08/26 11:12:28;;;;;;;0.30;0.30;;;18.80;1.00;;;;;;5044216;28;20048;-73
2023/08/26 11:15:05;;;;;;;0.47;0.40;;;18.60;99.90;;;;;;5047019;28;20075;-74
2023/08/26 11:17:32;;;;;;;0.32;0.30;;;18.30;99.90;;;;;;5035459;28;20056;-73
2023/08/26 11:20:16;;;;;;;0.52;0.52;;;18.10;99.90;;;;;;5060811;28;20044;-77
2023/08/26 11:22:46;;;;;;;0.40;0.40;;;17.90;99.90;;;;;;5067660;28;20048;-75
2023/08/26 11:25:14;;;;;;;0.43;0.43;;;17.70;1.00;;;;;;5026069;28;20148;-75
2023/08/26 11:27:41;;;;;;;0.55;0.47;;;17.60;99.90;;;;;;5042244;28;20055;-75
2023/08/26 11:30:09;;;;;;;0.35;0.35;;;17.50;99.90;;;;;;5044117;28;20121;-74
2023/08/26 11:32:36;;;;;;;0.50;0.50;;;17.40;99.90;;;;;;5048410;28;20048;-74
2023/08/26 11:35:12;;;;;;;0.43;0.32;;;17.40;99.90;;;;;;5035964;28;20425;-75
2023/08/26 11:37:45;;;;;;;0.35;0.35;;;17.30;99.90;;;;;;5033066;28;20040;-74
2023/08/26 11:40:12;;;;;;;0.40;0.40;;;17.30;99.90;;;;;;5053924;28;20523;-74
2023/08/26 11:42:40;;;;;;;0.40;0.40;;;17.30;99.90;;;;;;5044915;28;20044;-75
2023/08/26 11:45:11;;;;;;;0.57;0.50;;;17.40;1.00;;;;;;5045353;28;20110;-75
2023/08/26 11:47:41;;;;;;;0.40;0.40;;;17.50;1.00;;;;;;5044913;28;20059;-75
2023/08/26 11:50:11;;;;;;;0.30;0.30;;;17.50;99.90;;;;;;5018610;28;20048;-75
2023/08/26 11:52:38;;;;;;;0.50;0.50;;;17.50;99.90;;;;;;5055285;28;20057;-75
2023/08/26 11:55:06;;;;;;;0.38;0.38;;;17.60;99.90;;;;;;5060674;28;20053;-74
2023/08/26 11:57:40;;;;;;;0.40;0.40;;;17.90;51.50;;;;;;5062729;28;20426;-77
2023/08/26 12:00:11;;;;;;;0.40;0.40;;;18.00;1.00;;;;;;5047062;28;20159;-77
2023/08/26 12:02:39;;;;;;;0.50;0.50;;;18.30;1.00;;;;;;5034686;28;20211;-76
2023/08/26 12:05:06;;;;;;;1.73;0.40;;;18.60;99.90;;;;;;5048592;28;20573;-77
2023/08/26 12:07:33;;;;;;;0.40;0.40;;;18.90;1.00;;;;;;5050386;28;20064;-76
2023/08/26 12:10:09;;;;;;;0.50;0.50;;;19.40;1.00;;;;;;5047138;28;20056;-77
2023/08/26 12:12:36;;;;;;;0.30;0.30;;;19.90;99.90;;;;;;5056600;28;20084;-76
2023/08/26 12:15:11;;;;;;;0.30;0.30;;;20.60;61.30;;;;;;5046087;28;20132;-76
2023/08/26 12:17:56;;;;;;;0.47;0.47;;;20.90;99.90;;;;;;5047922;28;20520;-76
2023/08/26 12:20:25;;;;;;;0.50;0.50;;;21.30;93.50;;;;;;5068554;28;20079;-77
2023/08/26 12:22:55;;;;;;;0.40;0.40;;;21.60;99.90;;;;;;5038681;28;20549;-76
2023/08/26 12:25:35;;;;;;;0.40;0.40;;;21.90;59.10;;;;;;5053543;28;20076;-76
2023/08/26 12:28:17;;;;;;;0.50;0.50;;;22.00;26.00;;;;;;5048405;28;20508;-76
2023/08/26 12:30:47;;;;;;;0.40;0.40;;;22.20;13.60;;;;;;5052902;28;20647;-76
2023/08/26 12:33:14;;;;;;;0.40;0.40;;;22.30;13.10;;;;;;5047101;28;20701;-76
2023/08/26 12:35:53;;;;;;;0.70;0.55;;;22.60;11.50;;;;;;5025192;28;20043;-76
2023/08/26 12:38:20;;;;;;;0.38;0.32;;;22.70;14.90;;;;;;5054354;28;20055;-76
2023/08/26 12:40:48;;;;;;;0.35;0.30;;;22.40;11.30;;;;;;5057029;28;20075;-75
2023/08/26 12:43:18;;;;;;;0.55;0.50;;;22.00;5.20;;;;;;5053383;28;20683;-76
2023/08/26 12:45:45;;;;;;;0.30;0.30;;;21.60;6.90;;;;;;5053148;28;20138;-75
2023/08/26 12:48:12;;;;;;;1.15;0.50;;;21.10;1.00;;;;;;5031175;28;20209;-75
2023/08/26 12:50:48;;;;;;;0.40;0.40;;;20.70;1.00;;;;;;5029457;28;20931;-75
2023/08/26 12:53:15;;;;;;;0.20;0.20;;;20.20;1.00;;;;;;5047484;28;20589;-75
2023/08/26 12:55:42;;;;;;;0.63;0.47;;;19.90;1.00;;;;;;5053345;28;20056;-75